sensor_id;sensor_type;location;lat;lon;timestamp;pressure;altitude;pressure_sealevel;temperature;humidity
56825;BME280;42705;50.326;18.772;2023-09-12T00:01:30;98228.48;;;21.14;59.38
56825;BME280;42705;50.326;18.772;2023-09-12T00:06:54;98225.40;;;21.09;59.38
56825;BME280;42705;50.326;18.772;2023-09-12T00:12:16;98229.09;;;21.09;59.68
56825;BME280;42705;50.326;18.772;2023-09-12T00:17:38;98219.25;;;21.11;59.88
56825;BME280;42705;50.326;18.772;2023-09-12T00:23:00;98223.75;;;21.11;59.89
56825;BME280;42705;50.326;18.772;2023-09-12T00:28:22;98222.51;;;21.07;59.91
56825;BME280;42705;50.326;18.772;2023-09-12T00:33:43;98227.85;;;21.06;60.05
56825;BME280;42705;50.326;18.772;2023-09-12T00:39:05;98228.05;;;21.04;60.14
56825;BME280;42705;50.326;18.772;2023-09-12T00:44:27;98226.15;;;20.97;60.08
56825;BME280;42705;50.326;18.772;2023-09-12T00:49:50;98229.48;;;20.87;60.05
56825;BME280;42705;50.326;18.772;2023-09-12T00:55:12;98226.85;;;20.78;60.16
56825;BME280;42705;50.326;18.772;2023-09-12T01:00:35;98228.50;;;20.73;60.29
56825;BME280;42705;50.326;18.772;2023-09-12T01:05:59;98228.64;;;20.71;60.44
56825;BME280;42705;50.326;18.772;2023-09-12T01:11:21;98224.44;;;20.68;60.58
56825;BME280;42705;50.326;18.772;2023-09-12T01:16:44;98223.38;;;20.64;60.61
56825;BME280;42705;50.326;18.772;2023-09-12T01:27:41;98213.58;;;20.55;60.76
56825;BME280;42705;50.326;18.772;2023-09-12T01:33:04;98218.60;;;20.51;60.93
56825;BME280;42705;50.326;18.772;2023-09-12T01:38:26;98225.66;;;20.46;61.09
56825;BME280;42705;50.326;18.772;2023-09-12T01:43:50;98228.30;;;20.37;60.96
56825;BME280;42705;50.326;18.772;2023-09-12T01:49:13;98233.48;;;20.33;60.87
56825;BME280;42705;50.326;18.772;2023-09-12T01:54:37;98232.86;;;20.28;60.77
56825;BME280;42705;50.326;18.772;2023-09-12T01:59:59;98228.34;;;20.22;60.92
56825;BME280;42705;50.326;18.772;2023-09-12T02:05:22;98230.44;;;20.17;61.01
56825;BME280;42705;50.326;18.772;2023-09-12T02:10:44;98227.84;;;20.11;61.12
56825;BME280;42705;50.326;18.772;2023-09-12T02:16:06;98226.36;;;20.12;61.26
56825;BME280;42705;50.326;18.772;2023-09-12T02:21:29;98229.70;;;20.16;61.50
56825;BME280;42705;50.326;18.772;2023-09-12T02:26:51;98227.24;;;20.18;61.59
56825;BME280;42705;50.326;18.772;2023-09-12T02:32:13;98224.27;;;20.17;61.69
56825;BME280;42705;50.326;18.772;2023-09-12T02:37:36;98224.68;;;20.12;61.77
56825;BME280;42705;50.326;18.772;2023-09-12T02:42:58;98226.48;;;20.14;61.94
56825;BME280;42705;50.326;18.772;2023-09-12T02:48:22;98226.34;;;20.17;62.10
56825;BME280;42705;50.326;18.772;2023-09-12T02:53:43;98226.02;;;20.18;62.08
56825;BME280;42705;50.326;18.772;2023-09-12T02:59:06;98229.45;;;20.18;62.10
56825;BME280;42705;50.326;18.772;2023-09-12T03:04:29;98229.09;;;20.18;62.15
56825;BME280;42705;50.326;18.772;2023-09-12T03:09:52;98227.98;;;20.19;62.09
56825;BME280;42705;50.326;18.772;2023-09-12T03:15:13;98234.61;;;20.18;62.19
56825;BME280;42705;50.326;18.772;2023-09-12T03:20:38;98228.70;;;20.11;62.17
56825;BME280;42705;50.326;18.772;2023-09-12T03:26:05;98229.51;;;20.11;62.29
56825;BME280;42705;50.326;18.772;2023-09-12T03:31:27;98232.21;;;20.13;62.48
56825;BME280;42705;50.326;18.772;2023-09-12T03:36:50;98232.86;;;20.12;62.43
56825;BME280;42705;50.326;18.772;2023-09-12T03:42:12;98231.80;;;20.08;62.41
56825;BME280;42705;50.326;18.772;2023-09-12T03:47:34;98230.45;;;20.07;62.55
56825;BME280;42705;50.326;18.772;2023-09-12T03:52:57;98232.10;;;20.06;62.49
56825;BME280;42705;50.326;18.772;2023-09-12T03:58:19;98234.27;;;20.02;62.54
56825;BME280;42705;50.326;18.772;2023-09-12T04:03:41;98242.74;;;19.94;62.53
56825;BME280;42705;50.326;18.772;2023-09-12T04:09:03;98240.39;;;19.85;62.57
56825;BME280;42705;50.326;18.772;2023-09-12T04:14:25;98240.71;;;19.81;62.52
56825;BME280;42705;50.326;18.772;2023-09-12T04:19:47;98237.98;;;19.80;62.70
56825;BME280;42705;50.326;18.772;2023-09-12T04:25:09;98239.13;;;19.77;62.81
56825;BME280;42705;50.326;18.772;2023-09-12T04:30:31;98241.05;;;19.74;62.85
56825;BME280;42705;50.326;18.772;2023-09-12T04:35:58;98242.77;;;19.77;63.06
56825;BME280;42705;50.326;18.772;2023-09-12T04:41:20;98247.30;;;19.83;63.20
56825;BME280;42705;50.326;18.772;2023-09-12T04:46:43;98247.20;;;19.86;63.16
56825;BME280;42705;50.326;18.772;2023-09-12T04:52:05;98245.00;;;19.88;63.15
56825;BME280;42705;50.326;18.772;2023-09-12T04:57:27;98244.96;;;19.93;63.11
56825;BME280;42705;50.326;18.772;2023-09-12T05:02:52;98253.33;;;20.00;63.22
56825;BME280;42705;50.326;18.772;2023-09-12T05:08:14;98257.58;;;20.05;63.21
56825;BME280;42705;50.326;18.772;2023-09-12T05:13:37;98264.94;;;20.08;63.21
56825;BME280;42705;50.326;18.772;2023-09-12T05:18:59;98270.33;;;20.14;63.13
56825;BME280;42705;50.326;18.772;2023-09-12T05:24:21;98266.67;;;20.20;62.98
56825;BME280;42705;50.326;18.772;2023-09-12T05:29:43;98264.79;;;20.21;62.85
56825;BME280;42705;50.326;18.772;2023-09-12T05:35:05;98270.08;;;20.20;62.60
56825;BME280;42705;50.326;18.772;2023-09-12T05:40:27;98269.25;;;20.21;62.56
56825;BME280;42705;50.326;18.772;2023-09-12T05:45:50;98268.96;;;20.27;62.60
56825;BME280;42705;50.326;18.772;2023-09-12T05:51:12;98267.67;;;20.35;62.47
56825;BME280;42705;50.326;18.772;2023-09-12T05:56:34;98273.10;;;20.44;62.48
56825;BME280;42705;50.326;18.772;2023-09-12T06:01:56;98272.55;;;20.49;62.35
56825;BME280;42705;50.326;18.772;2023-09-12T06:07:19;98278.09;;;20.55;62.17
56825;BME280;42705;50.326;18.772;2023-09-12T06:12:41;98284.05;;;20.67;62.20
56825;BME280;42705;50.326;18.772;2023-09-12T06:18:04;98286.52;;;20.80;62.17
56825;BME280;42705;50.326;18.772;2023-09-12T06:23:26;98283.77;;;20.93;62.06
56825;BME280;42705;50.326;18.772;2023-09-12T06:28:47;98281.44;;;21.03;61.77
56825;BME280;42705;50.326;18.772;2023-09-12T06:34:10;98286.13;;;21.13;61.76
56825;BME280;42705;50.326;18.772;2023-09-12T06:39:32;98279.70;;;21.29;61.79
56825;BME280;42705;50.326;18.772;2023-09-12T06:44:53;98275.48;;;21.45;61.48
56825;BME280;42705;50.326;18.772;2023-09-12T06:50:15;98277.21;;;21.58;60.95
56825;BME280;42705;50.326;18.772;2023-09-12T06:55:37;98283.87;;;21.64;60.42
56825;BME280;42705;50.326;18.772;2023-09-12T07:01:06;98291.41;;;21.68;60.20
56825;BME280;42705;50.326;18.772;2023-09-12T07:06:28;98288.06;;;21.70;59.94
56825;BME280;42705;50.326;18.772;2023-09-12T07:11:50;98289.14;;;21.75;59.85
56825;BME280;42705;50.326;18.772;2023-09-12T07:17:12;98284.24;;;21.82;59.78
56825;BME280;42705;50.326;18.772;2023-09-12T07:22:34;98290.65;;;21.96;59.61
56825;BME280;42705;50.326;18.772;2023-09-12T07:27:56;98291.08;;;22.07;59.49
56825;BME280;42705;50.326;18.772;2023-09-12T07:33:18;98295.58;;;22.14;59.34
56825;BME280;42705;50.326;18.772;2023-09-12T07:38:40;98298.83;;;22.24;59.23
56825;BME280;42705;50.326;18.772;2023-09-12T07:44:03;98299.43;;;22.32;59.05
56825;BME280;42705;50.326;18.772;2023-09-12T07:49:26;98303.09;;;22.41;58.85
56825;BME280;42705;50.326;18.772;2023-09-12T07:54:49;98294.88;;;22.52;58.41
56825;BME280;42705;50.326;18.772;2023-09-12T08:00:14;98291.88;;;22.60;57.99
56825;BME280;42705;50.326;18.772;2023-09-12T08:05:36;98287.33;;;22.66;57.64
56825;BME280;42705;50.326;18.772;2023-09-12T08:10:58;98280.42;;;22.74;57.36
56825;BME280;42705;50.326;18.772;2023-09-12T08:16:20;98286.50;;;22.84;57.17
56825;BME280;42705;50.326;18.772;2023-09-12T08:21:42;98281.67;;;22.93;56.93
56825;BME280;42705;50.326;18.772;2023-09-12T08:27:05;98284.73;;;23.06;56.93
56825;BME280;42705;50.326;18.772;2023-09-12T08:32:27;98283.59;;;23.19;56.30
56825;BME280;42705;50.326;18.772;2023-09-12T08:37:49;98289.73;;;23.27;55.30
56825;BME280;42705;50.326;18.772;2023-09-12T08:43:11;98288.66;;;23.36;55.22
56825;BME280;42705;50.326;18.772;2023-09-12T08:48:33;98286.92;;;23.45;55.29
56825;BME280;42705;50.326;18.772;2023-09-12T08:53:56;98289.04;;;23.55;54.97
56825;BME280;42705;50.326;18.772;2023-09-12T08:59:17;98290.25;;;23.65;55.02
56825;BME280;42705;50.326;18.772;2023-09-12T09:04:41;98290.65;;;23.79;55.01
56825;BME280;42705;50.326;18.772;2023-09-12T09:10:06;98286.54;;;23.93;54.75
56825;BME280;42705;50.326;18.772;2023-09-12T09:15:29;98281.45;;;24.05;54.42
56825;BME280;42705;50.326;18.772;2023-09-12T09:20:51;98277.52;;;24.18;54.50
56825;BME280;42705;50.326;18.772;2023-09-12T09:26:13;98280.91;;;24.37;54.42
56825;BME280;42705;50.326;18.772;2023-09-12T09:31:38;98275.46;;;24.56;54.19
56825;BME280;42705;50.326;18.772;2023-09-12T09:37:02;98270.09;;;24.75;54.12
56825;BME280;42705;50.326;18.772;2023-09-12T09:42:28;98266.59;;;24.93;53.92
56825;BME280;42705;50.326;18.772;2023-09-12T09:47:50;98268.63;;;25.12;53.67
56825;BME280;42705;50.326;18.772;2023-09-12T09:53:13;98265.73;;;25.28;53.11
56825;BME280;42705;50.326;18.772;2023-09-12T09:58:35;98264.29;;;25.40;52.46
56825;BME280;42705;50.326;18.772;2023-09-12T10:03:57;98263.08;;;25.56;52.11
56825;BME280;42705;50.326;18.772;2023-09-12T10:09:22;98257.46;;;25.74;51.71
56825;BME280;42705;50.326;18.772;2023-09-12T10:14:45;98256.27;;;25.91;51.21
56825;BME280;42705;50.326;18.772;2023-09-12T10:20:13;98255.31;;;26.09;50.69
56825;BME280;42705;50.326;18.772;2023-09-12T10:25:38;98252.11;;;26.28;50.21
56825;BME280;42705;50.326;18.772;2023-09-12T10:31:01;98256.34;;;26.48;49.73
56825;BME280;42705;50.326;18.772;2023-09-12T10:36:24;98250.77;;;26.62;48.15
56825;BME280;42705;50.326;18.772;2023-09-12T10:41:49;98248.00;;;26.74;47.04
56825;BME280;42705;50.326;18.772;2023-09-12T10:47:13;98242.42;;;26.87;45.57
56825;BME280;42705;50.326;18.772;2023-09-12T10:52:36;98251.04;;;27.09;45.02
56825;BME280;42705;50.326;18.772;2023-09-12T10:58:03;98248.35;;;27.31;44.58
56825;BME280;42705;50.326;18.772;2023-09-12T11:09:22;98243.25;;;27.68;43.18
56825;BME280;42705;50.326;18.772;2023-09-12T11:15:04;98241.84;;;27.82;42.51
56825;BME280;42705;50.326;18.772;2023-09-12T11:20:49;98240.87;;;27.97;42.07
56825;BME280;42705;50.326;18.772;2023-09-12T11:26:11;98238.32;;;28.28;42.09
56825;BME280;42705;50.326;18.772;2023-09-12T11:31:36;98238.91;;;28.66;42.14
56825;BME280;42705;50.326;18.772;2023-09-12T11:37:00;98235.10;;;29.02;41.44
56825;BME280;42705;50.326;18.772;2023-09-12T11:42:22;98235.89;;;29.29;40.46
56825;BME280;42705;50.326;18.772;2023-09-12T11:47:47;98230.59;;;29.55;39.97
56825;BME280;42705;50.326;18.772;2023-09-12T11:53:10;98226.34;;;29.94;39.47
56825;BME280;42705;50.326;18.772;2023-09-12T11:58:33;98221.23;;;30.32;38.84
56825;BME280;42705;50.326;18.772;2023-09-12T12:03:55;98213.45;;;30.62;38.64
56825;BME280;42705;50.326;18.772;2023-09-12T12:09:18;98214.95;;;31.03;38.07
56825;BME280;42705;50.326;18.772;2023-09-12T12:14:41;98208.83;;;31.42;37.48
56825;BME280;42705;50.326;18.772;2023-09-12T12:20:04;98205.40;;;31.83;36.98
56825;BME280;42705;50.326;18.772;2023-09-12T12:25:33;98203.60;;;32.15;36.59
56825;BME280;42705;50.326;18.772;2023-09-12T12:30:55;98199.53;;;32.01;35.39
56825;BME280;42705;50.326;18.772;2023-09-12T12:36:18;98198.85;;;32.29;35.58
56825;BME280;42705;50.326;18.772;2023-09-12T12:41:40;98196.45;;;33.41;34.65
56825;BME280;42705;50.326;18.772;2023-09-12T12:47:04;98191.77;;;37.47;31.01
56825;BME280;42705;50.326;18.772;2023-09-12T12:52:27;98181.48;;;41.69;27.65
56825;BME280;42705;50.326;18.772;2023-09-12T12:57:49;98178.66;;;45.40;24.35
56825;BME280;42705;50.326;18.772;2023-09-12T13:03:11;98178.20;;;45.54;22.71
56825;BME280;42705;50.326;18.772;2023-09-12T13:08:33;98180.07;;;45.65;21.70
56825;BME280;42705;50.326;18.772;2023-09-12T13:13:58;98181.83;;;47.44;20.07
56825;BME280;42705;50.326;18.772;2023-09-12T13:19:19;98170.83;;;50.55;18.23
56825;BME280;42705;50.326;18.772;2023-09-12T13:24:42;98168.21;;;53.28;16.33
56825;BME280;42705;50.326;18.772;2023-09-12T13:30:04;98164.91;;;55.36;14.70
56825;BME280;42705;50.326;18.772;2023-09-12T13:35:27;98161.91;;;56.19;14.00
56825;BME280;42705;50.326;18.772;2023-09-12T13:40:49;98155.27;;;54.90;13.48
56825;BME280;42705;50.326;18.772;2023-09-12T13:46:11;98151.84;;;55.82;12.77
56825;BME280;42705;50.326;18.772;2023-09-12T13:51:34;98153.02;;;57.02;12.04
56825;BME280;42705;50.326;18.772;2023-09-12T13:56:57;98155.55;;;58.02;11.34
56825;BME280;42705;50.326;18.772;2023-09-12T14:02:19;98156.27;;;58.38;10.68
56825;BME280;42705;50.326;18.772;2023-09-12T14:07:42;98154.91;;;58.49;10.40
56825;BME280;42705;50.326;18.772;2023-09-12T14:13:05;98149.79;;;58.57;10.13
56825;BME280;42705;50.326;18.772;2023-09-12T14:18:26;98148.10;;;58.53;9.98
56825;BME280;42705;50.326;18.772;2023-09-12T14:23:48;98144.85;;;58.16;10.03
56825;BME280;42705;50.326;18.772;2023-09-12T14:29:11;98143.98;;;55.49;11.01
56825;BME280;42705;50.326;18.772;2023-09-12T14:34:34;98147.11;;;54.36;11.01
56825;BME280;42705;50.326;18.772;2023-09-12T14:39:56;98139.69;;;53.84;11.43
56825;BME280;42705;50.326;18.772;2023-09-12T14:45:18;98138.05;;;53.49;11.55
56825;BME280;42705;50.326;18.772;2023-09-12T14:50:40;98139.70;;;52.51;11.94
56825;BME280;42705;50.326;18.772;2023-09-12T14:56:01;98143.73;;;50.33;12.92
56825;BME280;42705;50.326;18.772;2023-09-12T15:01:23;98141.20;;;48.69;13.90
56825;BME280;42705;50.326;18.772;2023-09-12T15:06:48;98138.77;;;46.25;15.04
56825;BME280;42705;50.326;18.772;2023-09-12T15:12:10;98138.46;;;44.17;16.36
56825;BME280;42705;50.326;18.772;2023-09-12T15:17:32;98146.37;;;42.27;17.52
56825;BME280;42705;50.326;18.772;2023-09-12T15:22:54;98141.60;;;40.59;18.75
56825;BME280;42705;50.326;18.772;2023-09-12T15:28:16;98145.85;;;39.28;20.14
56825;BME280;42705;50.326;18.772;2023-09-12T15:33:38;98145.56;;;38.21;21.13
56825;BME280;42705;50.326;18.772;2023-09-12T15:39:00;98143.71;;;37.32;22.22
56825;BME280;42705;50.326;18.772;2023-09-12T15:44:22;98146.54;;;36.60;23.43
56825;BME280;42705;50.326;18.772;2023-09-12T15:49:44;98142.86;;;36.03;24.42
56825;BME280;42705;50.326;18.772;2023-09-12T15:55:07;98138.27;;;36.09;24.88
56825;BME280;42705;50.326;18.772;2023-09-12T16:00:29;98139.36;;;35.95;25.74
56825;BME280;42705;50.326;18.772;2023-09-12T16:05:51;98138.16;;;35.91;26.00
56825;BME280;42705;50.326;18.772;2023-09-12T16:11:13;98132.52;;;36.04;26.41
56825;BME280;42705;50.326;18.772;2023-09-12T16:16:37;98133.27;;;35.73;26.71
56825;BME280;42705;50.326;18.772;2023-09-12T16:21:59;98134.59;;;35.07;27.43
56825;BME280;42705;50.326;18.772;2023-09-12T16:27:21;98138.21;;;34.33;28.10
56825;BME280;42705;50.326;18.772;2023-09-12T16:32:44;98141.49;;;33.62;28.90
56825;BME280;42705;50.326;18.772;2023-09-12T16:38:06;98146.27;;;32.97;30.10
56825;BME280;42705;50.326;18.772;2023-09-12T16:43:27;98145.38;;;32.37;31.08
56825;BME280;42705;50.326;18.772;2023-09-12T16:48:50;98148.02;;;31.80;32.11
56825;BME280;42705;50.326;18.772;2023-09-12T16:54:11;98149.70;;;31.28;33.21
56825;BME280;42705;50.326;18.772;2023-09-12T16:59:33;98147.77;;;30.80;33.80
56825;BME280;42705;50.326;18.772;2023-09-12T17:04:55;98147.80;;;30.34;34.66
56825;BME280;42705;50.326;18.772;2023-09-12T17:10:17;98142.45;;;29.90;35.24
56825;BME280;42705;50.326;18.772;2023-09-12T17:15:39;98141.61;;;29.48;35.53
56825;BME280;42705;50.326;18.772;2023-09-12T17:21:01;98148.30;;;29.11;36.20
56825;BME280;42705;50.326;18.772;2023-09-12T17:26:24;98152.45;;;28.76;36.57
56825;BME280;42705;50.326;18.772;2023-09-12T17:31:46;98156.89;;;28.45;37.09
56825;BME280;42705;50.326;18.772;2023-09-12T17:37:08;98160.44;;;28.16;37.71
56825;BME280;42705;50.326;18.772;2023-09-12T17:42:30;98161.26;;;27.90;38.13
56825;BME280;42705;50.326;18.772;2023-09-12T17:47:53;98166.40;;;27.65;38.97
56825;BME280;42705;50.326;18.772;2023-09-12T17:53:15;98168.36;;;27.43;39.49
56825;BME280;42705;50.326;18.772;2023-09-12T17:58:41;98170.50;;;27.21;40.18
56825;BME280;42705;50.326;18.772;2023-09-12T18:04:03;98168.38;;;27.00;40.63
56825;BME280;42705;50.326;18.772;2023-09-12T18:09:25;98167.12;;;26.81;41.26
56825;BME280;42705;50.326;18.772;2023-09-12T18:14:48;98172.41;;;26.64;41.82
56825;BME280;42705;50.326;18.772;2023-09-12T18:20:10;98173.63;;;26.47;42.21
56825;BME280;42705;50.326;18.772;2023-09-12T18:25:33;98177.52;;;26.31;42.61
56825;BME280;42705;50.326;18.772;2023-09-12T18:30:54;98180.05;;;26.15;42.91
56825;BME280;42705;50.326;18.772;2023-09-12T18:36:16;98192.39;;;26.00;43.28
56825;BME280;42705;50.326;18.772;2023-09-12T18:41:38;98189.12;;;25.85;43.66
56825;BME280;42705;50.326;18.772;2023-09-12T18:47:00;98191.11;;;25.70;43.89
56825;BME280;42705;50.326;18.772;2023-09-12T18:52:23;98186.72;;;25.60;44.33
56825;BME280;42705;50.326;18.772;2023-09-12T18:57:46;98188.41;;;25.49;44.86
56825;BME280;42705;50.326;18.772;2023-09-12T19:03:08;98194.91;;;25.37;45.24
56825;BME280;42705;50.326;18.772;2023-09-12T19:08:31;98195.85;;;25.25;45.63
56825;BME280;42705;50.326;18.772;2023-09-12T19:13:53;98203.13;;;25.15;45.86
56825;BME280;42705;50.326;18.772;2023-09-12T19:19:17;98199.36;;;25.05;46.30
56825;BME280;42705;50.326;18.772;2023-09-12T19:24:40;98202.61;;;24.95;46.63
56825;BME280;42705;50.326;18.772;2023-09-12T19:30:10;98197.77;;;24.85;46.79
56825;BME280;42705;50.326;18.772;2023-09-12T19:35:37;98201.36;;;24.74;47.34
56825;BME280;42705;50.326;18.772;2023-09-12T19:41:01;98199.77;;;24.65;47.57
56825;BME280;42705;50.326;18.772;2023-09-12T19:46:25;98201.86;;;24.56;47.79
56825;BME280;42705;50.326;18.772;2023-09-12T19:51:49;98197.67;;;24.47;48.23
56825;BME280;42705;50.326;18.772;2023-09-12T19:57:12;98196.02;;;24.38;48.52
56825;BME280;42705;50.326;18.772;2023-09-12T20:02:35;98200.04;;;24.29;48.71
56825;BME280;42705;50.326;18.772;2023-09-12T20:07:56;98200.86;;;24.20;49.05
56825;BME280;42705;50.326;18.772;2023-09-12T20:13:18;98199.98;;;24.11;49.19
56825;BME280;42705;50.326;18.772;2023-09-12T20:18:40;98202.99;;;24.03;49.33
56825;BME280;42705;50.326;18.772;2023-09-12T20:24:03;98204.30;;;23.95;49.47
56825;BME280;42705;50.326;18.772;2023-09-12T20:29:25;98205.54;;;23.88;49.77
56825;BME280;42705;50.326;18.772;2023-09-12T20:34:47;98201.25;;;23.83;49.72
56825;BME280;42705;50.326;18.772;2023-09-12T20:40:09;98199.38;;;23.78;49.90
56825;BME280;42705;50.326;18.772;2023-09-12T20:45:31;98201.37;;;23.74;50.09
56825;BME280;42705;50.326;18.772;2023-09-12T20:50:53;98201.29;;;23.70;50.33
56825;BME280;42705;50.326;18.772;2023-09-12T20:56:16;98201.44;;;23.65;50.54
56825;BME280;42705;50.326;18.772;2023-09-12T21:01:38;98203.19;;;23.60;50.70
56825;BME280;42705;50.326;18.772;2023-09-12T21:06:59;98201.80;;;23.53;50.84
56825;BME280;42705;50.326;18.772;2023-09-12T21:12:21;98202.50;;;23.47;51.01
56825;BME280;42705;50.326;18.772;2023-09-12T21:17:46;98203.11;;;23.41;51.17
56825;BME280;42705;50.326;18.772;2023-09-12T21:23:07;98209.54;;;23.35;51.46
56825;BME280;42705;50.326;18.772;2023-09-12T21:28:30;98214.27;;;23.28;51.69
56825;BME280;42705;50.326;18.772;2023-09-12T21:33:51;98215.69;;;23.19;51.84
56825;BME280;42705;50.326;18.772;2023-09-12T21:39:13;98216.74;;;23.12;51.83
56825;BME280;42705;50.326;18.772;2023-09-12T21:44:36;98214.54;;;23.05;51.87
56825;BME280;42705;50.326;18.772;2023-09-12T21:49:58;98218.09;;;23.00;51.80
56825;BME280;42705;50.326;18.772;2023-09-12T21:55:21;98220.24;;;22.96;51.92
56825;BME280;42705;50.326;18.772;2023-09-12T22:00:43;98221.29;;;22.93;52.14
56825;BME280;42705;50.326;18.772;2023-09-12T22:06:08;98220.51;;;22.89;52.50
56825;BME280;42705;50.326;18.772;2023-09-12T22:11:29;98215.10;;;22.82;52.82
56825;BME280;42705;50.326;18.772;2023-09-12T22:16:51;98212.44;;;22.74;53.08
56825;BME280;42705;50.326;18.772;2023-09-12T22:22:13;98217.68;;;22.65;53.32
56825;BME280;42705;50.326;18.772;2023-09-12T22:27:35;98212.20;;;22.54;53.59
56825;BME280;42705;50.326;18.772;2023-09-12T22:32:57;98209.55;;;22.44;53.90
56825;BME280;42705;50.326;18.772;2023-09-12T22:38:19;98209.80;;;22.37;54.04
56825;BME280;42705;50.326;18.772;2023-09-12T22:43:41;98209.05;;;22.32;54.20
56825;BME280;42705;50.326;18.772;2023-09-12T22:49:03;98206.11;;;22.34;54.50
56825;BME280;42705;50.326;18.772;2023-09-12T22:54:25;98198.71;;;22.36;54.68
56825;BME280;42705;50.326;18.772;2023-09-12T22:59:47;98196.31;;;22.38;54.84
56825;BME280;42705;50.326;18.772;2023-09-12T23:05:08;98199.46;;;22.35;54.96
56825;BME280;42705;50.326;18.772;2023-09-12T23:10:31;98200.02;;;22.30;55.03
56825;BME280;42705;50.326;18.772;2023-09-12T23:15:53;98199.11;;;22.22;55.24
56825;BME280;42705;50.326;18.772;2023-09-12T23:21:16;98195.29;;;22.14;55.52
56825;BME280;42705;50.326;18.772;2023-09-12T23:26:37;98192.81;;;22.08;55.85
56825;BME280;42705;50.326;18.772;2023-09-12T23:31:59;98192.75;;;22.07;56.16
56825;BME280;42705;50.326;18.772;2023-09-12T23:37:24;98187.66;;;22.10;56.33
56825;BME280;42705;50.326;18.772;2023-09-12T23:42:46;98181.11;;;22.12;56.39
56825;BME280;42705;50.326;18.772;2023-09-12T23:48:08;98180.27;;;22.07;56.50
56825;BME280;42705;50.326;18.772;2023-09-12T23:53:30;98179.28;;;21.95;56.66
56825;BME280;42705;50.326;18.772;2023-09-12T23:58:52;98176.28;;;21.80;56.89
